Khulna, Bangladesh
Current Conditions -  °F | °C
As of 11:20 PM on Wednesday 26 Nov 2014 (Local Time) from VGHS Reporting Station
Haze Haze  
Wind Chill: 70°   Ceiling: Unl
Heat Index: 70°   Visibility: 2.1mi
Dew Point: 61°   Wind: 0mph
Humidity: 73%   Direction: NA
Pressure: 29.8"   Gusts: NA
Location:  23.37°N, 89.5°E
Report Text: VGHS 261720Z 00000KT 3500 HZ SCT015 21/16 Q1009 NOSIG
Loading
Personal Weather Stations






























Interactive Weather Map New forecast layout! Learn more

10-Day Weather Forecast

Advertisements
Track Severe Weather on mobile